Time;durP1;ratioP1;P1;durP2;ratioP2;P2;SDS_P1;SDS_P2;PMS_P1;PMS_P2;Temp;Humidity;BMP_temperature;BMP_pressure;BME280_temperature;BME280_humidity;BME280_pressure;Samples;Min_cycle;Max_cycle;Signal;HPM_P1;HPM_P2
2024/01/22 00:02:38;;;;;;;61.60;25.73;;;;;;;-4.01;100.00;101886.69;6268449;28;20043;-74
2024/01/22 00:05:39;;;;;;;61.55;28.83;;;;;;;-3.99;100.00;101881.63;6267564;28;20049;-70
2024/01/22 00:08:40;;;;;;;64.85;32.03;;;;;;;-4.03;100.00;101887.47;6262622;28;20064;-74
2024/01/22 00:11:41;;;;;;;56.55;26.05;;;;;;;-4.09;100.00;101894.13;6258657;28;20049;-74
2024/01/22 00:14:42;;;;;;;50.05;27.10;;;;;;;-4.01;100.00;101893.47;6267591;28;20044;-74
2024/01/22 00:17:42;;;;;;;48.55;25.50;;;;;;;-4.00;100.00;101898.59;6266544;28;20052;-74
2024/01/22 00:20:43;;;;;;;56.28;24.88;;;;;;;-3.96;100.00;101894.47;6252690;28;20547;-69
2024/01/22 00:23:44;;;;;;;43.33;23.70;;;;;;;-4.00;100.00;101903.69;6262834;28;20082;-74
2024/01/22 00:26:50;;;;;;;43.88;22.48;;;;;;;-3.96;100.00;101910.63;6257511;28;20502;-69
2024/01/22 00:29:51;;;;;;;38.25;21.27;;;;;;;-3.92;100.00;101907.34;6263585;28;20068;-70
2024/01/22 00:32:52;;;;;;;51.75;22.67;;;;;;;-4.03;100.00;101923.19;6262485;28;20049;-74
2024/01/22 00:35:55;;;;;;;53.50;26.67;;;;;;;-3.98;100.00;101926.72;6267759;28;20053;-74
2024/01/22 00:38:55;;;;;;;70.45;26.58;;;;;;;-3.96;100.00;101925.06;6256126;28;20060;-74
2024/01/22 00:41:56;;;;;;;52.67;23.55;;;;;;;-4.01;100.00;101936.84;6270112;28;20131;-70
2024/01/22 00:45:00;;;;;;;38.45;20.30;;;;;;;-4.05;100.00;101943.53;6270471;28;20051;-74
2024/01/22 00:48:01;;;;;;;41.95;21.00;;;;;;;-4.15;100.00;101959.38;6270935;28;20079;-74
2024/01/22 00:51:01;;;;;;;50.13;23.80;;;;;;;-4.12;100.00;101956.91;6270297;28;20419;-69
2024/01/22 00:54:02;;;;;;;34.75;21.67;;;;;;;-4.07;100.00;101965.56;6269792;28;20049;-69
2024/01/22 00:57:03;;;;;;;45.20;20.85;;;;;;;-4.02;100.00;101965.69;6253934;28;20428;-70
2024/01/22 01:00:05;;;;;;;38.50;18.88;;;;;;;-4.15;100.00;101982.31;6262211;28;20049;-69
2024/01/22 01:03:09;;;;;;;43.53;20.00;;;;;;;-4.12;100.00;101973.09;6264173;28;20052;-70
2024/01/22 01:06:10;;;;;;;43.00;19.00;;;;;;;-4.03;100.00;101972.47;6258383;28;20059;-70
2024/01/22 01:09:11;;;;;;;35.25;17.17;;;;;;;-3.87;100.00;101977.22;6267541;28;20061;-69
2024/01/22 01:12:12;;;;;;;27.50;14.75;;;;;;;-3.78;100.00;101983.41;6269113;28;20570;-74
2024/01/22 01:15:13;;;;;;;41.05;18.50;;;;;;;-3.72;100.00;101989.53;6271244;28;20514;-74
2024/01/22 01:18:13;;;;;;;37.15;17.50;;;;;;;-3.59;100.00;101984.78;6266877;28;20057;-74
2024/01/22 01:21:14;;;;;;;25.90;14.50;;;;;;;-3.51;100.00;101994.38;6278597;28;20061;-74
2024/01/22 01:24:15;;;;;;;37.90;16.70;;;;;;;-3.39;100.00;101985.34;6273403;28;20120;-70
2024/01/22 01:27:17;;;;;;;43.85;18.17;;;;;;;-3.29;100.00;101975.41;6270445;28;20057;-70
2024/01/22 01:30:18;;;;;;;30.23;17.08;;;;;;;-3.29;100.00;101984.75;6274973;28;20056;-74
2024/01/22 01:33:19;;;;;;;54.38;17.45;;;;;;;-3.25;100.00;101984.03;6272534;28;20068;-74
2024/01/22 01:36:20;;;;;;;45.58;13.40;;;;;;;-3.38;100.00;101977.69;6272954;28;20049;-70
2024/01/22 01:39:20;;;;;;;47.65;13.63;;;;;;;-3.26;100.00;101972.91;6272159;28;20049;-69
2024/01/22 01:42:22;;;;;;;36.30;13.25;;;;;;;-3.18;100.00;101975.69;6287292;28;20057;-73
2024/01/22 01:45:22;;;;;;;30.00;14.23;;;;;;;-3.10;100.00;101975.88;6269439;28;20060;-70
2024/01/22 01:48:23;;;;;;;42.65;15.55;;;;;;;-3.21;100.00;101947.53;6269351;28;20152;-74
2024/01/22 01:51:24;;;;;;;31.63;15.70;;;;;;;-3.11;100.00;101956.25;6272730;28;20048;-74
2024/01/22 01:54:28;;;;;;;47.97;19.48;;;;;;;-3.18;100.00;101962.06;6279256;28;20451;-74
2024/01/22 01:57:32;;;;;;;39.22;19.58;;;;;;;-3.28;100.00;101940.53;6274235;28;20049;-74
2024/01/22 02:00:33;;;;;;;35.53;18.50;;;;;;;-3.29;100.00;101932.00;6273472;28;20064;-74
2024/01/22 02:03:33;;;;;;;34.85;17.88;;;;;;;-3.28;100.00;101930.31;6278976;28;20131;-70
2024/01/22 02:06:36;;;;;;;31.10;16.15;;;;;;;-3.32;100.00;101920.84;6271531;28;20045;-70
2024/01/22 02:09:51;;;;;;;32.10;17.92;;;;;;;-3.25;100.00;101904.88;6273117;28;20053;-70
2024/01/22 02:12:52;;;;;;;32.65;16.63;;;;;;;-3.33;100.00;101912.31;6266695;28;20045;-70
2024/01/22 02:15:53;;;;;;;47.92;17.25;;;;;;;-3.25;100.00;101913.38;6274901;28;20057;-70
2024/01/22 02:18:54;;;;;;;38.30;16.80;;;;;;;-3.26;100.00;101905.69;6277326;28;20484;-70
2024/01/22 02:21:54;;;;;;;26.45;12.05;;;;;;;-3.38;100.00;101903.66;6284722;28;20045;-70
2024/01/22 02:24:55;;;;;;;24.23;12.45;;;;;;;-3.33;100.00;101919.13;6271913;28;20045;-70
2024/01/22 02:27:56;;;;;;;30.17;13.48;;;;;;;-3.18;100.00;101913.53;6270222;28;20053;-74
2024/01/22 02:30:57;;;;;;;18.83;12.95;;;;;;;-3.22;100.00;101904.94;6272816;28;20102;-74
2024/01/22 02:34:00;;;;;;;27.65;12.43;;;;;;;-3.24;100.00;101910.00;6271260;28;20448;-74
2024/01/22 02:37:01;;;;;;;20.48;11.80;;;;;;;-3.18;100.00;101906.75;6265250;28;20044;-71
2024/01/22 02:40:01;;;;;;;39.00;13.35;;;;;;;-3.15;100.00;101911.94;6272484;28;20403;-70
2024/01/22 02:43:02;;;;;;;27.45;12.73;;;;;;;-3.17;100.00;101917.81;6270567;28;20037;-70
2024/01/22 02:46:03;;;;;;;25.45;13.70;;;;;;;-2.99;100.00;101925.94;6265407;28;20484;-74
2024/01/22 02:49:04;;;;;;;18.48;9.70;;;;;;;-3.12;100.00;101911.16;6261735;28;20433;-74
2024/01/22 02:52:05;;;;;;;31.17;12.77;;;;;;;-3.18;100.00;101916.94;6262590;28;20053;-74
2024/01/22 02:55:08;;;;;;;16.20;10.73;;;;;;;-3.31;100.00;101914.94;6261738;28;20052;-70
2024/01/22 02:58:09;;;;;;;29.77;15.75;;;;;;;-3.06;100.00;101921.50;6271601;28;20136;-74
2024/01/22 03:01:10;;;;;;;13.70;8.00;;;;;;;-3.06;100.00;101930.03;6270847;28;20106;-74
2024/01/22 03:04:11;;;;;;;19.35;10.52;;;;;;;-2.94;100.00;101931.16;6272991;28;20053;-74
2024/01/22 03:07:12;;;;;;;26.98;13.73;;;;;;;-3.06;100.00;101921.50;6271602;28;20131;-74
2024/01/22 03:10:13;;;;;;;30.08;12.15;;;;;;;-2.97;100.00;101921.72;6272935;28;20110;-74
2024/01/22 03:13:13;;;;;;;36.10;16.23;;;;;;;-2.86;100.00;101930.53;6260480;28;20052;-74
2024/01/22 03:16:14;;;;;;;35.20;14.43;;;;;;;-2.80;100.00;101918.72;6269527;28;20083;-70
2024/01/22 03:19:15;;;;;;;24.65;12.52;;;;;;;-2.83;100.00;101920.38;6266773;28;20393;-70
2024/01/22 03:22:16;;;;;;;14.13;8.50;;;;;;;-2.84;100.00;101905.03;6257692;28;20056;-74
2024/01/22 03:25:16;;;;;;;30.60;14.70;;;;;;;-2.73;100.00;101903.56;6255608;28;20048;-71
2024/01/22 03:28:17;;;;;;;21.50;11.73;;;;;;;-2.65;100.00;101919.94;6260823;28;20148;-74
2024/01/22 03:31:26;;;;;;;53.30;16.98;;;;;;;-2.72;100.00;101918.09;6271543;28;20063;-70
2024/01/22 03:34:27;;;;;;;21.10;10.43;;;;;;;-2.98;100.00;101920.00;6271242;28;20055;-70
2024/01/22 03:37:28;;;;;;;15.45;10.23;;;;;;;-2.77;100.00;101927.31;6271507;28;20053;-70
2024/01/22 03:40:31;;;;;;;25.02;11.65;;;;;;;-2.91;100.00;101942.31;6269208;28;20127;-71
2024/01/22 03:43:31;;;;;;;26.83;14.13;;;;;;;-2.84;100.00;101944.19;6271268;28;20049;-70
2024/01/22 03:46:32;;;;;;;21.83;11.07;;;;;;;-3.01;100.00;101955.69;6271228;28;20175;-73
2024/01/22 03:49:33;;;;;;;30.83;13.77;;;;;;;-2.88;100.00;101955.16;6270771;28;20119;-70
2024/01/22 03:52:34;;;;;;;23.38;12.15;;;;;;;-2.75;100.00;101956.31;6271634;28;20066;-71
2024/01/22 03:55:37;;;;;;;21.40;13.63;;;;;;;-2.77;100.00;101942.66;6270907;28;20464;-74
2024/01/22 03:58:38;;;;;;;20.48;10.98;;;;;;;-2.73;100.00;101944.44;6270986;28;20045;-74
2024/01/22 04:01:41;;;;;;;24.55;11.77;;;;;;;-2.58;100.00;101943.09;6271146;28;20495;-70
2024/01/22 04:04:42;;;;;;;25.70;13.10;;;;;;;-2.71;100.00;101947.06;6270260;28;20045;-70
2024/01/22 04:07:43;;;;;;;22.42;11.80;;;;;;;-2.77;100.00;101942.66;6271259;28;20053;-71
2024/01/22 04:10:46;;;;;;;32.20;13.30;;;;;;;-2.68;100.00;101930.09;6270969;28;20431;-73
2024/01/22 04:13:47;;;;;;;18.48;11.15;;;;;;;-2.71;100.00;101922.34;6271578;28;20068;-71
2024/01/22 04:16:50;;;;;;;21.13;9.88;;;;;;;-2.68;100.00;101930.09;6269826;28;20081;-70
2024/01/22 04:19:50;;;;;;;25.95;14.23;;;;;;;-2.60;100.00;101934.50;6271732;28;20140;-70
2024/01/22 04:22:52;;;;;;;21.35;12.30;;;;;;;-2.56;100.00;101932.06;6271553;28;20090;-74
2024/01/22 04:25:53;;;;;;;23.85;12.18;;;;;;;-2.46;100.00;101925.47;6262643;28;20100;-74
2024/01/22 04:28:53;;;;;;;27.45;10.75;;;;;;;-2.77;100.00;101913.69;6269938;28;20064;-74
2024/01/22 04:31:54;;;;;;;24.88;11.13;;;;;;;-2.60;100.00;101908.97;6270081;28;20049;-74
2024/01/22 04:34:55;;;;;;;24.48;10.18;;;;;;;-2.57;100.00;101912.47;6252308;28;20040;-74
2024/01/22 04:37:56;;;;;;;29.42;13.13;;;;;;;-2.58;100.00;101910.72;6268869;28;20044;-70
2024/01/22 04:40:57;;;;;;;17.10;8.57;;;;;;;-2.69;100.00;101896.84;6268415;28;20163;-74
2024/01/22 04:43:57;;;;;;;24.08;11.65;;;;;;;-2.50;100.00;101896.41;6261871;28;20468;-70
2024/01/22 04:47:00;;;;;;;23.17;11.20;;;;;;;-2.53;100.00;101898.91;6272628;28;20048;-70
2024/01/22 04:50:01;;;;;;;15.85;10.13;;;;;;;-2.58;100.00;101894.53;6259386;28;20048;-74
2024/01/22 04:53:02;;;;;;;27.20;13.07;;;;;;;-2.42;100.00;101900.84;6273234;28;20132;-74
2024/01/22 04:56:03;;;;;;;22.13;13.35;;;;;;;-2.41;100.00;101897.44;6264932;28;20050;-70
2024/01/22 04:59:04;;;;;;;18.60;10.35;;;;;;;-2.48;100.00;101911.78;6269795;28;20060;-74
2024/01/22 05:02:05;;;;;;;23.10;11.10;;;;;;;-2.37;100.00;101923.09;6274588;28;20049;-74
2024/01/22 05:05:08;;;;;;;23.73;10.70;;;;;;;-2.31;100.00;101923.25;6275311;28;20091;-74
2024/01/22 05:08:09;;;;;;;31.27;11.95;;;;;;;-2.33;100.00;101924.03;6275700;28;20063;-74
2024/01/22 05:11:10;;;;;;;37.10;11.60;;;;;;;-2.30;100.00;101924.13;6274427;28;21625;-71
2024/01/22 05:14:10;;;;;;;20.80;10.20;;;;;;;-2.40;100.00;101934.97;6268679;28;20045;-70
2024/01/22 05:17:11;;;;;;;18.23;8.68;;;;;;;-2.37;100.00;101925.66;6273842;28;20057;-70
2024/01/22 05:20:12;;;;;;;19.00;8.43;;;;;;;-2.30;100.00;101929.25;6270245;28;20491;-70
2024/01/22 05:23:14;;;;;;;20.67;9.13;;;;;;;-2.37;100.00;101925.66;6305072;28;20102;-70
2024/01/22 05:26:15;;;;;;;30.93;11.37;;;;;;;-2.15;100.00;101928.69;6290912;28;20514;-70
2024/01/22 05:29:15;;;;;;;14.27;9.25;;;;;;;-2.20;100.00;101927.72;6297116;28;20052;-70
2024/01/22 05:32:19;;;;;;;28.60;11.23;;;;;;;-2.39;100.00;101919.66;6290650;28;20061;-70
2024/01/22 05:35:20;;;;;;;17.05;9.35;;;;;;;-2.40;100.00;101922.19;6282911;28;20520;-69
2024/01/22 05:38:21;;;;;;;16.00;9.98;;;;;;;-2.33;100.00;101918.94;6274264;28;20053;-69
2024/01/22 05:41:22;;;;;;;13.23;6.13;;;;;;;-2.30;100.00;101917.31;6277415;28;20052;-70
2024/01/22 05:44:25;;;;;;;34.63;9.18;;;;;;;-2.25;100.00;101912.28;6286020;28;20048;-70
2024/01/22 05:47:25;;;;;;;16.83;9.30;;;;;;;-2.28;100.00;101909.69;6275520;28;20053;-70
2024/01/22 05:50:26;;;;;;;26.60;11.15;;;;;;;-2.21;100.00;101892.75;6275733;28;20095;-73
2024/01/22 05:53:27;;;;;;;23.88;10.57;;;;;;;-2.28;100.00;101879.00;6297738;28;20041;-74
2024/01/22 05:56:28;;;;;;;28.70;10.32;;;;;;;-2.23;100.00;101883.34;6281676;28;20415;-74
2024/01/22 05:59:31;;;;;;;23.67;9.40;;;;;;;-2.20;100.00;101884.25;6279804;28;20048;-73
2024/01/22 06:02:32;;;;;;;14.07;7.97;;;;;;;-2.18;100.00;101880.91;6276321;28;20410;-74
2024/01/22 06:05:33;;;;;;;23.10;9.57;;;;;;;-2.47;100.00;101877.72;6297463;28;20063;-70
2024/01/22 06:08:34;;;;;;;14.00;6.90;;;;;;;-2.54;100.00;101876.72;6296149;28;20142;-74
2024/01/22 06:11:35;;;;;;;21.02;8.20;;;;;;;-2.30;100.00;101885.78;6297420;28;20064;-70
2024/01/22 06:14:35;;;;;;;20.52;9.25;;;;;;;-2.36;100.00;101880.53;6297189;28;20049;-73
2024/01/22 06:17:36;;;;;;;18.08;9.02;;;;;;;-2.43;100.00;101874.38;6296986;28;20052;-69
2024/01/22 06:20:37;;;;;;;14.85;8.45;;;;;;;-2.32;100.00;101880.63;6298067;28;20044;-69
2024/01/22 06:23:38;;;;;;;23.35;9.52;;;;;;;-2.19;100.00;101889.41;6297862;28;20048;-70
2024/01/22 06:26:39;;;;;;;23.15;11.75;;;;;;;-2.24;100.00;101889.31;6297773;28;20059;-70
2024/01/22 06:29:42;;;;;;;10.98;7.13;;;;;;;-2.34;100.00;101899.31;6296482;28;20084;-70
2024/01/22 06:32:43;;;;;;;21.17;8.55;;;;;;;-2.33;100.00;101898.47;6296509;28;20067;-73
2024/01/22 06:35:45;;;;;;;16.20;7.80;;;;;;;-2.24;100.00;101891.00;6296325;28;20048;-74
2024/01/22 06:38:46;;;;;;;17.40;9.18;;;;;;;-2.31;100.00;101884.03;6297616;28;20067;-74
2024/01/22 06:41:47;;;;;;;10.05;5.50;;;;;;;-2.30;100.00;101883.22;6296248;28;20348;-73
2024/01/22 06:44:47;;;;;;;20.05;9.65;;;;;;;-2.16;100.00;101891.16;6297189;28;20048;-73
2024/01/22 06:47:48;;;;;;;22.65;10.82;;;;;;;-2.18;100.00;101888.59;6297142;28;20048;-74
2024/01/22 06:50:49;;;;;;;31.77;13.27;;;;;;;-1.91;100.00;101893.38;6296289;28;20135;-74
2024/01/22 06:53:52;;;;;;;25.45;11.45;;;;;;;-1.89;100.00;101894.28;6295765;28;20077;-73
2024/01/22 06:56:53;;;;;;;42.38;21.00;;;;;;;-2.01;100.00;101876.13;6296895;28;20063;-70
2024/01/22 06:59:55;;;;;;;38.95;19.73;;;;;;;-2.00;100.00;101882.94;6295773;28;20052;-70
2024/01/22 07:02:58;;;;;;;32.95;16.50;;;;;;;-1.85;100.00;101884.97;6295654;28;20044;-69
2024/01/22 07:05:59;;;;;;;15.57;8.52;;;;;;;-1.95;100.00;101880.50;6296794;28;20506;-71
2024/01/22 07:09:00;;;;;;;25.63;10.73;;;;;;;-1.83;100.00;101873.94;6294663;28;20067;-69
2024/01/22 07:12:01;;;;;;;18.05;10.60;;;;;;;-1.91;100.00;101872.06;6295624;28;20054;-70
2024/01/22 07:15:01;;;;;;;28.90;14.05;;;;;;;-1.78;100.00;101880.81;6295404;28;20044;-71
2024/01/22 07:18:02;;;;;;;25.40;10.90;;;;;;;-1.75;100.00;101896.22;6296579;28;20056;-71
2024/01/22 07:21:06;;;;;;;19.45;11.63;;;;;;;-1.97;100.00;101892.41;6296521;28;20053;-70
2024/01/22 07:24:07;;;;;;;23.35;7.78;;;;;;;-1.82;100.00;101890.13;6296594;28;20054;-70
2024/01/22 07:27:08;;;;;;;33.33;11.73;;;;;;;-1.93;100.00;101900.16;6295222;28;20048;-70
2024/01/22 07:30:11;;;;;;;18.52;8.88;;;;;;;-1.97;100.00;101898.38;6296330;28;20052;-74
2024/01/22 07:33:12;;;;;;;21.48;9.35;;;;;;;-1.90;100.00;101904.47;6295303;28;20044;-70
2024/01/22 07:36:13;;;;;;;16.08;8.63;;;;;;;-1.80;100.00;101906.38;6296291;28;20192;-70
2024/01/22 07:39:14;;;;;;;12.25;7.60;;;;;;;-1.66;100.00;101911.78;6296369;28;20054;-71
2024/01/22 07:42:14;;;;;;;18.00;10.52;;;;;;;-1.51;100.00;101906.94;6295029;28;20410;-69
2024/01/22 07:45:16;;;;;;;24.30;10.15;;;;;;;-1.59;100.00;101907.63;6296330;28;20040;-71
2024/01/22 07:48:16;;;;;;;22.30;9.95;;;;;;;-1.46;100.00;101899.34;6296104;28;20056;-70
2024/01/22 07:51:17;;;;;;;22.55;10.93;;;;;;;-1.49;100.00;101891.59;6295985;28;20087;-70
2024/01/22 07:54:18;;;;;;;25.02;12.18;;;;;;;-1.24;100.00;101904.00;6295955;28;20045;-71
2024/01/22 07:57:19;;;;;;;24.80;12.27;;;;;;;-1.13;100.00;101891.38;6294622;28;20044;-70
2024/01/22 08:00:20;;;;;;;33.53;15.13;;;;;;;-1.09;100.00;101893.16;6295897;28;20075;-70
2024/01/22 08:03:22;;;;;;;28.15;11.23;;;;;;;-1.04;100.00;101893.22;6295741;28;20083;-70
2024/01/22 08:06:23;;;;;;;34.03;12.48;;;;;;;-1.21;100.00;101890.41;6296050;28;20048;-73
2024/01/22 08:09:26;;;;;;;20.45;10.70;;;;;;;-1.30;100.00;101885.94;6295595;28;20106;-74
2024/01/22 08:12:27;;;;;;;21.13;10.57;;;;;;;-1.31;100.00;101891.94;6295976;28;20052;-73
2024/01/22 08:15:27;;;;;;;14.55;7.55;;;;;;;-1.08;100.00;101896.56;6295683;28;20056;-70
2024/01/22 08:18:28;;;;;;;20.20;8.00;;;;;;;-1.00;100.00;101901.84;6294724;28;20048;-70
2024/01/22 08:21:29;;;;;;;23.95;11.65;;;;;;;-0.85;100.00;101891.81;6299078;28;20052;-74
2024/01/22 08:24:31;;;;;;;21.38;11.35;;;;;;;-0.94;100.00;101902.78;6300729;28;20051;-74
2024/01/22 08:27:32;;;;;;;36.03;14.82;;;;;;;-1.06;100.00;101903.44;6299421;28;20049;-74
2024/01/22 08:30:32;;;;;;;20.17;10.52;;;;;;;-0.81;100.00;101902.13;6300554;28;20521;-70
2024/01/22 08:33:33;;;;;;;34.03;11.93;;;;;;;-0.82;100.00;101894.44;6299381;28;20048;-70
2024/01/22 08:36:34;;;;;;;21.23;11.02;;;;;;;-0.94;100.00;101899.38;6299310;28;20491;-74
2024/01/22 08:39:35;;;;;;;22.10;11.32;;;;;;;-0.91;100.00;101904.53;6300271;28;20044;-70
2024/01/22 08:42:36;;;;;;;19.63;9.25;;;;;;;-0.78;100.00;101897.88;6299173;28;20056;-73
2024/01/22 08:45:36;;;;;;;23.67;10.40;;;;;;;-0.77;100.00;101894.50;6300410;28;20048;-71
2024/01/22 08:48:37;;;;;;;19.95;9.35;;;;;;;-0.80;100.00;101900.44;6298760;28;20059;-73
2024/01/22 08:51:38;;;;;;;23.00;11.05;;;;;;;-0.79;100.00;101891.91;6299123;28;20080;-74
2024/01/22 08:54:39;;;;;;;22.08;10.50;;;;;;;-0.71;100.00;101900.56;6298667;28;20063;-74
2024/01/22 08:57:40;;;;;;;12.02;6.72;;;;;;;-0.78;100.00;101901.34;6299854;28;20044;-70
2024/01/22 09:00:41;;;;;;;26.45;10.05;;;;;;;-0.97;100.00;101910.41;6298879;28;20048;-73
2024/01/22 09:03:42;;;;;;;14.38;8.65;;;;;;;-0.73;100.00;101906.53;6299755;28;20499;-70
2024/01/22 09:06:43;;;;;;;18.80;8.40;;;;;;;-0.60;100.00;101908.41;6299756;28;20457;-70
2024/01/22 09:09:44;;;;;;;26.65;12.55;;;;;;;-0.66;100.00;101908.31;6298128;28;20056;-73
2024/01/22 09:12:48;;;;;;;20.13;10.65;;;;;;;-0.68;100.00;101913.44;6299508;28;20045;-73
2024/01/22 09:15:48;;;;;;;37.90;19.25;;;;;;;-0.56;100.00;101894.81;6289497;28;20080;-74
2024/01/22 09:18:49;;;;;;;33.50;16.35;;;;;;;-0.64;100.00;101897.28;6274730;28;20072;-74
2024/01/22 09:21:50;;;;;;;24.63;12.95;;;;;;;-0.50;100.00;101905.16;6274494;28;20048;-70
2024/01/22 09:24:51;;;;;;;20.70;9.68;;;;;;;-0.53;100.00;101897.41;6273174;28;20049;-70
2024/01/22 09:27:52;;;;;;;21.98;11.25;;;;;;;-0.35;100.00;101891.69;6274403;28;20053;-70
2024/01/22 09:30:55;;;;;;;22.63;10.23;;;;;;;-0.62;100.00;101876.75;6272298;28;20581;-74
2024/01/22 09:33:56;;;;;;;19.10;11.27;;;;;;;-0.35;100.00;101886.56;6273307;28;20051;-73
2024/01/22 09:36:56;;;;;;;18.17;8.93;;;;;;;-0.49;100.00;101877.81;6274182;28;20049;-71
2024/01/22 09:39:57;;;;;;;27.02;12.38;;;;;;;-0.69;100.00;101882.66;6272649;28;20072;-74
2024/01/22 09:43:03;;;;;;;20.85;10.27;;;;;;;-0.88;100.00;101873.84;6274084;28;20123;-74
2024/01/22 09:46:04;;;;;;;17.80;9.88;;;;;;;-0.65;100.00;101877.59;6274068;28;20484;-70
2024/01/22 09:49:05;;;;;;;18.30;10.90;;;;;;;-0.42;100.00;101867.63;6273883;28;20059;-71
2024/01/22 09:52:08;;;;;;;22.33;10.25;;;;;;;-0.14;100.00;101862.88;6274188;28;20052;-70
2024/01/22 09:55:09;;;;;;;13.48;7.80;;;;;;;-0.32;100.00;101854.94;6272571;28;20045;-70
2024/01/22 09:58:16;;;;;;;18.65;9.65;;;;;;;-0.39;100.00;101848.00;6272487;28;20495;-70
2024/01/22 10:01:17;;;;;;;14.85;7.03;;;;;;;-0.63;100.00;101839.16;6272587;28;20080;-70
2024/01/22 10:04:19;;;;;;;23.25;10.90;;;;;;;-0.65;100.00;101844.25;6273498;28;20483;-70
2024/01/22 10:07:19;;;;;;;12.85;8.07;;;;;;;-0.66;100.00;101836.53;6272139;28;20568;-70
2024/01/22 10:10:21;;;;;;;17.10;9.82;;;;;;;-0.76;100.00;101833.00;6273405;28;20538;-70
2024/01/22 10:13:22;;;;;;;21.80;9.88;;;;;;;-0.67;100.00;101825.44;6273790;28;20049;-74
2024/01/22 10:16:29;;;;;;;15.80;9.00;;;;;;;-0.51;100.00;101815.38;6273352;28;20110;-74
2024/01/22 10:19:32;;;;;;;16.27;7.38;;;;;;;-0.68;100.00;101797.19;6273461;28;20140;-70
2024/01/22 10:22:34;;;;;;;18.90;10.00;;;;;;;-0.55;100.00;101795.69;6272964;28;20053;-74
2024/01/22 10:25:35;;;;;;;21.52;10.68;;;;;;;-0.54;100.00;101787.13;6271606;28;20045;-70
2024/01/22 10:28:36;;;;;;;19.65;9.68;;;;;;;-0.41;100.00;101779.59;6271717;28;20063;-70
2024/01/22 10:31:55;;;;;;;18.77;8.00;;;;;;;-0.34;100.00;101777.97;6272167;28;20049;-71
2024/01/22 10:34:56;;;;;;;17.73;9.18;;;;;;;-0.30;100.00;101789.13;6272780;28;20056;-70
2024/01/22 10:38:09;;;;;;;22.58;9.38;;;;;;;0.01;100.00;101792.03;6271566;28;20053;-70
2024/01/22 10:41:20;;;;;;;16.48;9.50;;;;;;;-0.27;100.00;101789.16;6271031;28;20063;-70
2024/01/22 10:44:22;;;;;;;19.90;9.85;;;;;;;-0.07;100.00;101786.81;6271672;28;20076;-70
2024/01/22 10:47:23;;;;;;;38.75;12.82;;;;;;;-0.06;100.00;101774.00;6271202;28;20507;-72
2024/01/22 10:50:28;;;;;;;15.50;9.38;;;;;;;-0.11;100.00;101760.25;6272554;28;20055;-71
2024/01/22 10:53:29;;;;;;;23.63;12.75;;;;;;;-0.38;100.00;101759.97;6271108;28;20049;-71
2024/01/22 10:56:34;;;;;;;20.38;9.15;;;;;;;-0.64;100.00;101745.13;6272379;28;20053;-71
2024/01/22 10:59:39;;;;;;;34.78;14.73;;;;;;;-0.58;100.00;101737.50;6272436;28;20053;-70
2024/01/22 11:02:46;;;;;;;22.77;9.70;;;;;;;-0.33;100.00;101742.91;6271058;28;20535;-70
2024/01/22 11:05:51;;;;;;;29.77;13.65;;;;;;;-0.37;100.00;101736.03;6272355;28;20056;-71
2024/01/22 11:08:56;;;;;;;28.80;13.43;;;;;;;-0.57;100.00;101734.13;6270643;28;20057;-70
2024/01/22 11:12:11;;;;;;;27.10;12.68;;;;;;;-0.42;100.00;101733.41;6272234;28;20478;-74
2024/01/22 11:15:12;;;;;;;23.30;11.18;;;;;;;-0.29;100.00;101727.59;6270656;28;20049;-73
2024/01/22 11:18:13;;;;;;;27.92;13.43;;;;;;;-0.34;100.00;101715.56;6270921;28;20391;-74
2024/01/22 11:21:18;;;;;;;24.88;11.82;;;;;;;-0.68;100.00;101700.66;6270499;28;20049;-73
2024/01/22 11:24:21;;;;;;;20.70;10.70;;;;;;;-0.72;100.00;101701.47;6272097;28;20044;-73
2024/01/22 11:27:37;;;;;;;26.00;11.82;;;;;;;-0.66;100.00;101705.78;6271688;28;20045;-73
2024/01/22 11:30:39;;;;;;;31.85;11.25;;;;;;;-0.45;100.00;101697.50;6271827;28;20064;-74
2024/01/22 11:33:50;;;;;;;37.40;13.75;;;;;;;-0.36;100.00;101692.44;6271638;28;20045;-70
2024/01/22 11:36:55;;;;;;;30.58;11.40;;;;;;;-0.42;100.00;101689.81;6271566;28;20049;-70
2024/01/22 11:39:56;;;;;;;37.95;14.10;;;;;;;-0.45;100.00;101697.50;6270203;28;20055;-70
2024/01/22 11:42:57;;;;;;;35.08;16.67;;;;;;;-0.36;100.00;101689.88;6270433;28;20403;-70
2024/01/22 11:46:00;;;;;;;17.85;8.40;;;;;;;-0.27;100.00;101679.72;6270065;28;20124;-70
2024/01/22 11:49:08;;;;;;;16.15;8.50;;;;;;;-0.31;100.00;101672.84;6271275;28;20597;-70
2024/01/22 11:52:17;;;;;;;20.70;11.75;;;;;;;0.07;100.00;101659.47;6271261;28;20175;-70
2024/01/22 11:55:18;;;;;;;27.77;12.10;;;;;;;-0.12;100.00;101650.78;6270954;28;20072;-70
2024/01/22 11:58:19;;;;;;;24.17;10.77;;;;;;;-0.02;100.00;101641.47;6269955;28;20488;-70
2024/01/22 12:01:20;;;;;;;23.10;11.82;;;;;;;0.18;100.00;101627.03;6271148;28;20283;-70
2024/01/22 12:04:21;;;;;;;29.02;12.50;;;;;;;-0.15;100.00;101624.22;6271309;28;20073;-70
2024/01/22 12:07:37;;;;;;;37.88;13.95;;;;;;;-0.26;100.00;101626.72;6270791;28;20049;-70
2024/01/22 12:10:38;;;;;;;29.08;14.32;;;;;;;-0.34;100.00;101625.78;6269912;28;20433;-70
2024/01/22 12:13:41;;;;;;;34.53;12.93;;;;;;;-0.15;100.00;101612.25;6269690;28;20094;-70
2024/01/22 12:16:42;;;;;;;31.63;11.77;;;;;;;-0.27;100.00;101627.53;6270883;28;20136;-70
2024/01/22 12:19:45;;;;;;;30.92;13.98;;;;;;;-0.26;100.00;101614.72;6269270;28;20060;-70
2024/01/22 12:22:59;;;;;;;17.60;10.20;;;;;;;-0.35;100.00;101612.09;6269310;28;20052;-70
2024/01/22 12:26:01;;;;;;;17.63;9.32;;;;;;;-0.30;100.00;101594.19;6269015;28;20461;-70
2024/01/22 12:29:04;;;;;;;25.98;12.23;;;;;;;-0.19;100.00;101596.81;6270274;28;20411;-71
2024/01/22 12:32:06;;;;;;;25.10;12.35;;;;;;;0.06;100.00;101591.00;6270228;28;20171;-72
2024/01/22 12:35:10;;;;;;;26.50;10.23;;;;;;;0.01;100.00;101584.16;6270205;28;20503;-71
2024/01/22 12:38:11;;;;;;;25.45;10.23;;;;;;;-0.03;100.00;101586.69;6269282;28;20431;-70
2024/01/22 12:41:14;;;;;;;30.83;11.63;;;;;;;-0.18;100.00;101578.88;6269481;28;20057;-70
2024/01/22 12:44:15;;;;;;;22.95;12.23;;;;;;;-0.09;100.00;101575.53;6269458;28;20057;-70
2024/01/22 12:47:16;;;;;;;25.73;12.90;;;;;;;-0.17;100.00;101570.31;6270765;28;20087;-70
2024/01/22 12:50:20;;;;;;;35.38;13.95;;;;;;;0.27;100.00;101568.91;6270434;28;20060;-69
2024/01/22 12:53:21;;;;;;;29.70;12.68;;;;;;;0.22;100.00;101556.03;6269072;28;20481;-69
2024/01/22 12:56:22;;;;;;;22.95;11.07;;;;;;;0.26;100.00;101550.06;6270494;28;20102;-69
2024/01/22 12:59:23;;;;;;;27.33;12.93;;;;;;;0.32;100.00;101555.25;6268998;28;20081;-70
2024/01/22 13:02:23;;;;;;;28.00;12.02;;;;;;;0.36;100.00;101556.13;6270215;28;20057;-69
2024/01/22 13:05:24;;;;;;;25.63;11.55;;;;;;;0.32;100.00;101552.69;6269051;28;20060;-70
2024/01/22 13:08:25;;;;;;;32.53;14.90;;;;;;;0.36;100.00;101551.00;6274120;28;20053;-70
2024/01/22 13:11:26;;;;;;;34.17;13.63;;;;;;;0.28;100.00;101556.06;6274708;28;20115;-69
2024/01/22 13:14:28;;;;;;;27.55;13.82;;;;;;;0.46;100.00;101554.47;6274650;28;20041;-69
2024/01/22 13:17:29;;;;;;;28.55;13.95;;;;;;;0.41;100.00;101544.16;6274808;28;20044;-69
2024/01/22 13:20:30;;;;;;;29.80;14.38;;;;;;;0.34;100.00;101548.41;6274477;28;20130;-69
2024/01/22 13:23:32;;;;;;;20.63;12.65;;;;;;;-0.12;100.00;101550.72;6273415;28;20045;-69
2024/01/22 13:26:32;;;;;;;31.67;13.27;;;;;;;-0.19;100.00;101548.09;6272506;28;20052;-69
2024/01/22 13:29:33;;;;;;;15.25;7.90;;;;;;;-0.39;100.00;101537.66;6273023;28;20060;-69
2024/01/22 13:32:34;;;;;;;26.30;11.55;;;;;;;-0.47;100.00;101541.03;6262685;28;20476;-69
2024/01/22 13:35:35;;;;;;;21.73;10.30;;;;;;;-0.44;100.00;101540.19;6273195;28;20045;-70
2024/01/22 13:38:42;;;;;;;27.08;13.48;;;;;;;-0.23;100.00;101540.38;6279805;28;20061;-70
2024/01/22 13:41:43;;;;;;;28.25;12.70;;;;;;;-0.19;100.00;101545.53;6273003;28;20049;-69